Time;durP1;ratioP1;P1;durP2;ratioP2;P2;SDS_P1;SDS_P2;PMS_P1;PMS_P2;Temp;Humidity;BMP_temperature;BMP_pressure;BME280_temperature;BME280_humidity;BME280_pressure;Samples;Min_cycle;Max_cycle;Signal;HPM_P1;HPM_P2
2021/03/07 00:01:16;;;;;;;2.45;1.80;;;23.10;46.40;;;;;;5073779;28;20052;-49
2021/03/07 00:03:43;;;;;;;2.97;1.80;;;23.10;46.40;;;;;;5074941;28;20131;-45
2021/03/07 00:06:10;;;;;;;2.95;2.00;;;23.10;46.40;;;;;;5074428;28;20447;-49
2021/03/07 00:08:37;;;;;;;2.78;2.15;;;23.10;46.40;;;;;;5073837;28;20451;-45
2021/03/07 00:11:19;;;;;;;2.38;1.60;;;23.10;46.40;;;;;;5074221;28;20063;-46
2021/03/07 00:13:46;;;;;;;2.60;1.90;;;23.10;46.40;;;;;;5074404;28;20044;-44
2021/03/07 00:16:12;;;;;;;2.22;1.80;;;23.10;46.40;;;;;;5075006;28;20442;-43
2021/03/07 00:18:39;;;;;;;2.00;1.65;;;23.10;46.40;;;;;;5074517;28;20051;-43
2021/03/07 00:21:06;;;;;;;2.53;1.77;;;23.10;46.40;;;;;;5074150;28;20056;-45
2021/03/07 00:23:33;;;;;;;2.33;1.95;;;23.10;46.40;;;;;;5074875;28;20106;-43
2021/03/07 00:26:00;;;;;;;3.08;2.00;;;23.10;46.40;;;;;;5074460;28;20048;-43
2021/03/07 00:28:26;;;;;;;2.25;1.70;;;23.10;46.40;;;;;;5074017;28;20114;-44
2021/03/07 00:30:53;;;;;;;2.35;1.77;;;23.10;46.30;;;;;;5074149;28;20049;-43
2021/03/07 00:33:20;;;;;;;3.13;1.98;;;23.10;46.30;;;;;;5074344;28;20060;-43
2021/03/07 00:35:47;;;;;;;2.83;1.95;;;23.10;46.40;;;;;;5072561;28;20048;-43
2021/03/07 00:38:14;;;;;;;2.33;1.58;;;23.10;46.40;;;;;;5074461;28;20391;-45
2021/03/07 00:40:42;;;;;;;2.50;1.95;;;23.10;46.40;;;;;;5074071;28;20488;-44
2021/03/07 00:43:09;;;;;;;2.85;2.00;;;23.10;46.40;;;;;;5073755;28;20101;-43
2021/03/07 00:45:36;;;;;;;2.15;1.77;;;23.00;46.20;;;;;;5072894;28;20067;-43
2021/03/07 00:48:02;;;;;;;3.00;2.20;;;23.00;46.20;;;;;;5072827;28;20052;-43
2021/03/07 00:50:29;;;;;;;3.22;2.13;;;23.00;46.30;;;;;;5072751;28;20052;-44
2021/03/07 00:52:57;;;;;;;2.88;1.90;;;23.00;46.20;;;;;;5073169;28;20496;-45
2021/03/07 00:55:24;;;;;;;2.72;1.90;;;23.00;46.20;;;;;;5074179;28;20075;-46
2021/03/07 00:57:51;;;;;;;2.85;2.08;;;23.00;46.20;;;;;;5071801;28;20090;-44
2021/03/07 01:00:23;;;;;;;2.85;2.00;;;23.00;46.20;;;;;;5073950;28;20053;-45
2021/03/07 01:02:49;;;;;;;2.85;2.00;;;23.00;46.20;;;;;;5074256;28;20060;-44
2021/03/07 01:05:17;;;;;;;3.17;2.10;;;23.00;46.20;;;;;;5073652;28;20484;-43
2021/03/07 01:07:44;;;;;;;2.30;1.92;;;23.00;46.20;;;;;;5072925;28;20053;-44
2021/03/07 01:10:15;;;;;;;2.28;1.90;;;23.00;46.20;;;;;;5073482;28;20044;-45
2021/03/07 01:12:42;;;;;;;2.95;2.20;;;23.00;46.20;;;;;;5073139;28;20086;-43
2021/03/07 01:15:09;;;;;;;3.00;2.17;;;23.00;46.20;;;;;;5073555;28;20048;-47
2021/03/07 01:17:36;;;;;;;2.97;2.05;;;23.00;46.20;;;;;;5073411;28;20101;-44
2021/03/07 01:20:16;;;;;;;2.97;2.00;;;23.00;46.20;;;;;;5073431;28;20047;-43
2021/03/07 01:22:51;;;;;;;2.67;1.98;;;23.00;46.20;;;;;;5073027;28;20458;-43
2021/03/07 01:25:20;;;;;;;2.72;1.90;;;23.00;46.20;;;;;;5073940;28;20045;-43
2021/03/07 01:27:46;;;;;;;2.92;2.17;;;23.00;46.20;;;;;;5072808;28;20071;-48
2021/03/07 01:30:15;;;;;;;2.17;1.70;;;23.00;46.20;;;;;;5073626;28;20093;-46
2021/03/07 01:32:42;;;;;;;3.13;1.98;;;23.00;46.20;;;;;;5072377;28;20416;-44
2021/03/07 01:35:09;;;;;;;2.85;2.15;;;23.00;46.20;;;;;;5073165;28;20488;-45
2021/03/07 01:37:36;;;;;;;3.17;2.30;;;23.00;46.10;;;;;;5072500;28;20053;-43
2021/03/07 01:40:25;;;;;;;3.13;1.88;;;23.00;46.20;;;;;;5073372;28;20048;-43
2021/03/07 01:42:54;;;;;;;3.45;2.17;;;23.00;46.20;;;;;;5072765;28;20114;-43
2021/03/07 01:45:22;;;;;;;2.70;1.85;;;23.00;46.10;;;;;;5073445;28;20048;-43
2021/03/07 01:47:53;;;;;;;2.80;2.30;;;23.00;46.20;;;;;;5073083;28;20048;-43
2021/03/07 01:50:23;;;;;;;3.30;2.03;;;23.00;46.20;;;;;;5073547;28;20075;-42
2021/03/07 01:52:50;;;;;;;2.75;1.80;;;23.00;46.10;;;;;;5072322;28;20056;-43
2021/03/07 01:55:19;;;;;;;3.33;2.20;;;23.00;46.20;;;;;;5072977;28;20052;-43
2021/03/07 01:57:48;;;;;;;3.58;2.38;;;23.00;46.20;;;;;;5073201;28;20131;-43
2021/03/07 02:00:16;;;;;;;2.83;2.00;;;23.00;46.10;;;;;;5072097;28;20059;-43
2021/03/07 02:02:43;;;;;;;2.75;2.10;;;23.00;46.10;;;;;;5073221;28;20048;-43
2021/03/07 02:05:17;;;;;;;3.40;2.50;;;23.00;46.10;;;;;;5073222;28;20070;-43
2021/03/07 02:07:44;;;;;;;2.65;2.10;;;22.90;46.10;;;;;;5072219;28;20507;-43
2021/03/07 02:10:15;;;;;;;3.25;2.35;;;22.90;46.10;;;;;;5073221;28;20049;-44
2021/03/07 02:12:49;;;;;;;3.00;2.13;;;23.00;46.10;;;;;;5072868;28;20127;-43
2021/03/07 02:15:18;;;;;;;2.97;2.13;;;22.90;46.00;;;;;;5074216;28;20049;-43
2021/03/07 02:17:46;;;;;;;3.15;2.13;;;22.90;46.10;;;;;;5076874;28;20067;-43
2021/03/07 02:20:19;;;;;;;4.45;2.53;;;22.90;46.10;;;;;;5076867;28;20055;-43
2021/03/07 02:23:13;;;;;;;4.15;1.90;;;22.90;46.00;;;;;;5076278;28;20049;-43
2021/03/07 02:25:40;;;;;;;3.25;2.13;;;22.90;46.00;;;;;;5071802;28;20072;-43
2021/03/07 02:28:08;;;;;;;2.92;2.30;;;22.90;46.10;;;;;;5077066;28;20117;-43
2021/03/07 02:30:37;;;;;;;3.13;2.08;;;22.90;46.00;;;;;;5076369;28;20049;-43
2021/03/07 02:33:36;;;;;;;2.90;2.13;;;22.90;46.10;;;;;;5075441;28;20060;-44
2021/03/07 02:36:08;;;;;;;2.83;2.03;;;22.90;46.10;;;;;;5070418;28;20056;-43
2021/03/07 02:38:39;;;;;;;2.47;1.88;;;22.90;46.00;;;;;;5075642;28;20044;-43
2021/03/07 02:41:08;;;;;;;3.22;2.08;;;22.90;46.00;;;;;;5076521;28;20048;-43
2021/03/07 02:43:39;;;;;;;2.67;2.08;;;22.90;46.00;;;;;;5075627;28;20102;-44
2021/03/07 02:46:11;;;;;;;3.22;2.40;;;22.90;46.00;;;;;;5076716;28;20041;-48
2021/03/07 02:48:40;;;;;;;2.92;2.15;;;22.90;46.00;;;;;;5076353;28;20135;-46
2021/03/07 02:51:09;;;;;;;4.00;2.55;;;22.90;46.00;;;;;;5076265;28;20518;-47
2021/03/07 02:53:39;;;;;;;2.90;2.20;;;22.90;46.00;;;;;;5075453;28;20048;-45
2021/03/07 02:56:14;;;;;;;2.83;1.98;;;22.90;46.00;;;;;;5076440;28;20053;-48
2021/03/07 02:58:42;;;;;;;3.28;2.20;;;22.80;45.90;;;;;;5075395;28;20139;-46
2021/03/07 03:01:14;;;;;;;2.95;2.22;;;22.80;45.90;;;;;;5076286;28;20049;-48
2021/03/07 03:03:43;;;;;;;2.88;2.20;;;22.80;45.90;;;;;;5076374;28;20124;-45
2021/03/07 03:06:11;;;;;;;2.65;2.13;;;22.80;45.90;;;;;;5076319;28;20048;-46
2021/03/07 03:08:40;;;;;;;2.70;1.95;;;22.80;45.90;;;;;;5075251;28;20075;-50
2021/03/07 03:11:08;;;;;;;2.85;2.20;;;22.80;45.90;;;;;;5074935;28;20094;-45
2021/03/07 03:13:37;;;;;;;2.40;2.13;;;22.80;45.90;;;;;;5076188;28;20059;-47
2021/03/07 03:16:05;;;;;;;3.55;2.20;;;22.80;45.90;;;;;;5074188;28;20193;-45
2021/03/07 03:18:35;;;;;;;3.28;2.35;;;22.80;45.90;;;;;;5075624;28;20492;-46
2021/03/07 03:21:09;;;;;;;2.90;2.38;;;22.80;45.90;;;;;;5075746;28;20573;-45
2021/03/07 03:23:37;;;;;;;2.90;2.30;;;22.80;45.90;;;;;;5075255;28;20052;-44
2021/03/07 03:26:04;;;;;;;2.90;2.35;;;22.80;45.90;;;;;;5074254;28;20543;-50
2021/03/07 03:28:32;;;;;;;2.30;2.00;;;22.80;45.90;;;;;;5075899;28;20386;-49
2021/03/07 03:30:59;;;;;;;3.35;2.35;;;22.80;45.90;;;;;;5074918;28;20092;-45
2021/03/07 03:33:27;;;;;;;2.85;2.10;;;22.80;45.90;;;;;;5074246;28;20440;-44
2021/03/07 03:35:54;;;;;;;3.55;2.17;;;22.80;45.90;;;;;;5075446;28;20488;-49
2021/03/07 03:38:34;;;;;;;2.90;2.30;;;22.80;45.90;;;;;;5074317;28;20049;-44
2021/03/07 03:41:03;;;;;;;3.20;2.20;;;22.80;45.90;;;;;;5075666;28;20045;-46
2021/03/07 03:43:49;;;;;;;3.42;2.35;;;22.80;45.90;;;;;;5075702;28;20463;-43
2021/03/07 03:46:17;;;;;;;2.53;2.15;;;22.80;45.90;;;;;;5074889;28;20048;-46
2021/03/07 03:48:48;;;;;;;2.72;2.17;;;22.80;45.90;;;;;;5073979;28;20044;-44
2021/03/07 03:51:18;;;;;;;3.38;2.47;;;22.80;45.90;;;;;;5075743;28;20435;-47
2021/03/07 03:53:47;;;;;;;2.75;2.30;;;22.80;45.90;;;;;;5074511;28;20497;-45
2021/03/07 03:56:17;;;;;;;3.15;2.33;;;22.80;45.90;;;;;;5075152;28;20059;-42
2021/03/07 03:58:45;;;;;;;2.70;2.30;;;22.80;45.90;;;;;;5075000;28;20044;-43
2021/03/07 04:01:17;;;;;;;2.88;2.20;;;22.80;45.90;;;;;;5074354;28;20404;-46
2021/03/07 04:03:49;;;;;;;2.42;2.08;;;22.80;45.90;;;;;;5075011;28;20044;-44
2021/03/07 04:06:24;;;;;;;3.75;2.42;;;22.80;45.90;;;;;;5075370;28;20048;-46
2021/03/07 04:08:53;;;;;;;3.85;2.55;;;22.80;45.80;;;;;;5074347;28;20461;-43
2021/03/07 04:11:24;;;;;;;2.97;2.30;;;22.80;45.90;;;;;;5075143;28;20060;-43
2021/03/07 04:14:01;;;;;;;3.00;2.40;;;22.80;45.90;;;;;;5074811;28;20520;-43
2021/03/07 04:16:28;;;;;;;3.50;2.50;;;22.80;45.80;;;;;;5074321;28;20048;-43
2021/03/07 04:18:56;;;;;;;3.17;2.17;;;22.80;45.80;;;;;;5074546;28;20179;-44
2021/03/07 04:21:23;;;;;;;3.13;2.20;;;22.80;45.90;;;;;;5074613;28;20048;-45
2021/03/07 04:23:51;;;;;;;2.67;2.10;;;22.70;45.70;;;;;;5074099;28;20052;-43
2021/03/07 04:26:18;;;;;;;3.10;2.55;;;22.70;45.70;;;;;;5074821;28;20514;-43
2021/03/07 04:28:45;;;;;;;3.15;2.20;;;22.70;45.70;;;;;;5074458;28;20067;-44
2021/03/07 04:31:13;;;;;;;3.40;2.22;;;22.70;45.70;;;;;;5073490;28;20048;-43
2021/03/07 04:33:42;;;;;;;2.75;2.17;;;22.70;45.70;;;;;;5074227;28;20087;-43
2021/03/07 04:36:09;;;;;;;3.53;2.50;;;22.70;46.10;;;;;;5074530;28;20056;-44
2021/03/07 04:38:36;;;;;;;2.72;2.10;;;22.70;45.70;;;;;;5072908;28;20056;-43
2021/03/07 04:41:03;;;;;;;3.53;2.28;;;22.70;45.70;;;;;;5074479;28;20052;-42
2021/03/07 04:43:46;;;;;;;4.03;2.40;;;22.70;45.70;;;;;;5074464;28;20102;-43
2021/03/07 04:46:13;;;;;;;3.17;2.28;;;22.70;45.70;;;;;;5073553;28;20052;-44
2021/03/07 04:48:40;;;;;;;3.10;2.10;;;22.70;45.70;;;;;;5074347;28;20056;-43
2021/03/07 04:51:07;;;;;;;2.78;2.40;;;22.70;45.70;;;;;;5074005;28;20086;-43
2021/03/07 04:53:34;;;;;;;3.05;2.20;;;22.70;45.70;;;;;;5073187;28;20044;-44
2021/03/07 04:56:01;;;;;;;2.33;2.03;;;22.70;45.70;;;;;;5073908;28;20052;-43
2021/03/07 04:58:27;;;;;;;3.95;2.10;;;22.70;45.70;;;;;;5074736;28;20048;-43
2021/03/07 05:00:54;;;;;;;3.88;2.33;;;22.70;45.70;;;;;;5073012;28;20049;-43
2021/03/07 05:03:21;;;;;;;2.45;2.10;;;22.70;45.70;;;;;;5074025;28;20052;-46
2021/03/07 05:05:48;;;;;;;3.67;2.35;;;22.70;45.70;;;;;;5074239;28;20041;-44
2021/03/07 05:08:16;;;;;;;3.03;2.22;;;22.70;45.70;;;;;;5073853;28;20462;-46
2021/03/07 05:10:42;;;;;;;3.28;2.45;;;22.70;45.70;;;;;;5073134;28;20053;-44
2021/03/07 05:13:09;;;;;;;2.75;2.30;;;22.70;45.70;;;;;;5074109;28;20044;-44
2021/03/07 05:15:37;;;;;;;3.30;2.50;;;22.70;45.70;;;;;;5072814;28;20101;-44
2021/03/07 05:18:04;;;;;;;2.97;2.30;;;22.70;45.70;;;;;;5073466;28;20133;-44
2021/03/07 05:20:31;;;;;;;3.17;2.30;;;22.70;45.70;;;;;;5073406;28;20051;-43
2021/03/07 05:22:58;;;;;;;2.50;2.25;;;22.70;45.70;;;;;;5073782;28;20079;-42
2021/03/07 05:25:25;;;;;;;2.83;2.13;;;22.70;45.70;;;;;;5072928;28;20131;-46
2021/03/07 05:27:53;;;;;;;2.97;2.17;;;22.70;45.70;;;;;;5073414;28;20045;-45
2021/03/07 05:30:20;;;;;;;3.22;2.10;;;22.70;45.70;;;;;;5071882;28;20527;-44
2021/03/07 05:32:47;;;;;;;3.35;2.40;;;22.70;45.70;;;;;;5073181;28;20052;-46
2021/03/07 05:35:14;;;;;;;3.10;2.28;;;22.70;45.70;;;;;;5073240;28;20045;-43
2021/03/07 05:37:42;;;;;;;3.05;2.15;;;22.70;45.70;;;;;;5073051;28;20056;-43
2021/03/07 05:40:09;;;;;;;2.95;2.35;;;22.70;45.70;;;;;;5071424;28;20094;-44
2021/03/07 05:42:37;;;;;;;3.55;2.05;;;22.70;45.70;;;;;;5073165;28;20488;-43
2021/03/07 05:45:21;;;;;;;3.75;2.38;;;22.70;45.70;;;;;;5074171;28;20143;-45
2021/03/07 05:47:52;;;;;;;2.72;2.20;;;22.70;45.70;;;;;;5071534;28;20404;-43
2021/03/07 05:50:20;;;;;;;3.00;2.22;;;22.70;45.70;;;;;;5072443;28;20044;-44
2021/03/07 05:52:48;;;;;;;3.03;2.30;;;22.70;45.70;;;;;;5073380;28;20059;-43
2021/03/07 05:55:15;;;;;;;2.88;2.40;;;22.70;45.70;;;;;;5073082;28;20059;-45
2021/03/07 05:57:46;;;;;;;2.92;2.10;;;22.70;45.70;;;;;;5073751;28;20403;-43
2021/03/07 06:00:20;;;;;;;2.33;2.13;;;22.70;45.60;;;;;;5072856;28;20052;-44
2021/03/07 06:02:47;;;;;;;3.22;2.00;;;22.70;45.70;;;;;;5072602;28;20048;-46
2021/03/07 06:05:15;;;;;;;3.10;2.53;;;22.70;45.60;;;;;;5073243;28;20049;-43
2021/03/07 06:07:43;;;;;;;2.55;2.33;;;22.70;45.60;;;;;;5072916;28;20094;-45
2021/03/07 06:10:21;;;;;;;3.22;2.30;;;22.70;45.60;;;;;;5071990;28;20049;-44
2021/03/07 06:13:04;;;;;;;3.20;2.33;;;22.70;45.60;;;;;;5071797;28;20052;-47
2021/03/07 06:15:50;;;;;;;2.50;2.05;;;22.70;45.60;;;;;;5073159;28;20470;-46
2021/03/07 06:18:22;;;;;;;3.25;2.33;;;22.70;45.60;;;;;;5072673;28;20050;-46
2021/03/07 06:20:52;;;;;;;3.20;2.50;;;22.70;45.60;;;;;;5072983;28;20131;-44
2021/03/07 06:23:37;;;;;;;2.95;2.20;;;22.70;45.60;;;;;;5072997;28;20071;-44
2021/03/07 06:26:10;;;;;;;3.38;2.30;;;22.70;45.50;;;;;;5071913;28;20072;-43
2021/03/07 06:28:37;;;;;;;3.15;2.38;;;22.70;45.50;;;;;;5073012;28;20102;-48
2021/03/07 06:31:30;;;;;;;3.20;2.38;;;22.70;45.50;;;;;;5072215;28;20044;-47
2021/03/07 06:33:58;;;;;;;3.33;2.50;;;22.70;45.50;;;;;;5052669;28;20059;-48
2021/03/07 06:36:27;;;;;;;3.15;2.20;;;22.70;45.50;;;;;;5053153;28;20053;-46
2021/03/07 06:39:03;;;;;;;3.10;2.15;;;22.70;45.50;;;;;;5052287;28;20049;-47
2021/03/07 06:41:34;;;;;;;2.80;2.00;;;22.70;45.50;;;;;;5069125;28;20048;-47
2021/03/07 06:44:09;;;;;;;2.80;2.10;;;22.70;45.50;;;;;;5072413;28;20055;-47
2021/03/07 06:46:39;;;;;;;2.33;2.00;;;22.70;45.50;;;;;;5072071;28;20052;-43
2021/03/07 06:49:06;;;;;;;3.60;2.40;;;22.70;45.50;;;;;;5072715;28;20048;-44
2021/03/07 06:51:36;;;;;;;4.18;2.35;;;22.70;45.50;;;;;;5072719;28;20407;-44
2021/03/07 06:54:17;;;;;;;3.03;2.30;;;22.70;45.40;;;;;;5072748;28;20149;-44
2021/03/07 06:56:48;;;;;;;3.47;2.63;;;22.70;45.40;;;;;;5071921;28;20052;-48
2021/03/07 06:59:19;;;;;;;3.38;2.13;;;22.70;45.50;;;;;;5072129;28;20040;-45
2021/03/07 07:01:54;;;;;;;2.67;2.00;;;22.70;45.40;;;;;;5074920;28;20048;-45
2021/03/07 07:04:24;;;;;;;3.53;2.38;;;22.70;45.40;;;;;;5076113;28;20052;-45
2021/03/07 07:07:07;;;;;;;2.85;2.33;;;22.70;45.40;;;;;;5075976;28;20052;-43
2021/03/07 07:09:34;;;;;;;3.33;2.42;;;22.70;45.40;;;;;;5076199;28;20055;-48
2021/03/07 07:12:07;;;;;;;2.80;2.30;;;22.70;45.40;;;;;;5075391;28;20049;-44
2021/03/07 07:14:42;;;;;;;2.70;2.10;;;22.70;45.40;;;;;;5075958;28;20044;-46
2021/03/07 07:17:11;;;;;;;2.50;2.08;;;22.70;45.40;;;;;;5075407;28;20118;-43
2021/03/07 07:19:39;;;;;;;3.50;2.50;;;22.70;45.30;;;;;;5075685;28;20041;-43
2021/03/07 07:22:07;;;;;;;4.03;2.33;;;22.70;45.30;;;;;;5076007;28;20044;-44
2021/03/07 07:24:34;;;;;;;3.40;2.33;;;22.70;45.30;;;;;;5074838;28;20068;-44
2021/03/07 07:27:02;;;;;;;2.67;2.13;;;22.70;45.30;;;;;;5074884;28;20056;-43
2021/03/07 07:29:28;;;;;;;3.58;2.45;;;22.70;45.30;;;;;;5075744;28;20052;-50
2021/03/07 07:31:58;;;;;;;3.22;2.28;;;22.70;45.30;;;;;;5075749;28;20053;-44
2021/03/07 07:34:42;;;;;;;4.13;2.30;;;22.70;45.30;;;;;;5075834;28;20127;-43
2021/03/07 07:37:34;;;;;;;2.95;2.20;;;22.70;45.30;;;;;;5075578;28;20052;-42
2021/03/07 07:40:02;;;;;;;2.10;1.90;;;22.70;45.30;;;;;;5075191;28;20067;-43
2021/03/07 07:42:31;;;;;;;3.10;2.30;;;22.70;45.30;;;;;;5074732;28;20127;-44
2021/03/07 07:45:10;;;;;;;3.60;2.33;;;22.70;45.30;;;;;;5075356;28;20058;-43
2021/03/07 07:47:48;;;;;;;2.22;1.80;;;22.70;45.30;;;;;;5074434;28;20053;-45
2021/03/07 07:50:28;;;;;;;2.60;2.08;;;22.70;45.20;;;;;;5074140;28;20527;-44
2021/03/07 07:52:55;;;;;;;3.20;2.05;;;22.70;45.20;;;;;;5075499;28;20082;-45
2021/03/07 07:55:56;;;;;;;3.55;1.95;;;22.70;45.20;;;;;;5074635;28;20052;-43
2021/03/07 07:58:36;;;;;;;2.92;1.98;;;22.70;45.20;;;;;;5075351;28;20048;-43
2021/03/07 08:01:13;;;;;;;3.28;2.30;;;22.70;45.20;;;;;;5075199;28;20049;-43
2021/03/07 08:03:50;;;;;;;3.03;2.30;;;22.70;45.20;;;;;;5074286;28;20049;-45
2021/03/07 08:06:23;;;;;;;2.08;1.80;;;22.80;45.30;;;;;;5075514;28;20048;-44
2021/03/07 08:08:51;;;;;;;2.80;2.13;;;22.70;45.20;;;;;;5075088;28;20052;-47
2021/03/07 08:11:28;;;;;;;3.28;2.30;;;22.80;45.30;;;;;;5074479;28;20045;-42
2021/03/07 08:13:56;;;;;;;2.95;2.13;;;22.80;45.20;;;;;;5073318;28;20094;-43
2021/03/07 08:16:36;;;;;;;3.22;2.05;;;22.80;45.30;;;;;;5074743;28;20053;-43
2021/03/07 08:19:05;;;;;;;2.47;1.95;;;22.80;45.30;;;;;;5073861;28;20450;-44
2021/03/07 08:22:03;;;;;;;2.70;2.20;;;22.80;45.30;;;;;;5074623;28;20049;-43
2021/03/07 08:24:59;;;;;;;2.33;1.90;;;22.80;45.80;;;;;;5074885;28;20052;-44
2021/03/07 08:27:40;;;;;;;2.47;2.20;;;22.80;45.20;;;;;;5015360;28;20045;-43
2021/03/07 08:30:14;;;;;;;2.72;2.05;;;22.80;45.20;;;;;;5032271;28;20057;-42
2021/03/07 08:32:42;;;;;;;2.70;2.38;;;22.80;45.20;;;;;;5031883;28;20052;-44
2021/03/07 08:35:20;;;;;;;2.67;1.95;;;22.80;45.20;;;;;;5032677;28;20136;-43
2021/03/07 08:38:08;;;;;;;3.13;2.25;;;22.80;45.20;;;;;;5032101;28;20501;-43
2021/03/07 08:40:36;;;;;;;2.90;2.13;;;22.80;45.20;;;;;;5032303;28;20575;-43
2021/03/07 08:43:38;;;;;;;3.08;2.17;;;22.80;45.20;;;;;;5048144;28;20196;-45
2021/03/07 08:46:12;;;;;;;2.42;1.90;;;22.80;45.20;;;;;;4934946;29;20091;-43
2021/03/07 08:48:47;;;;;;;3.25;2.08;;;22.80;45.20;;;;;;4934318;29;20519;-44
2021/03/07 08:51:17;;;;;;;2.80;2.22;;;22.80;45.20;;;;;;4935097;29;20096;-45
2021/03/07 08:53:45;;;;;;;3.33;2.22;;;22.80;45.10;;;;;;4934785;29;20052;-43
2021/03/07 08:56:13;;;;;;;2.58;2.13;;;22.80;45.10;;;;;;4933913;29;20107;-43
2021/03/07 08:58:45;;;;;;;2.88;2.20;;;22.80;45.10;;;;;;4934677;29;20048;-46
2021/03/07 09:01:13;;;;;;;3.03;2.33;;;22.80;45.10;;;;;;4934697;29;20051;-43
2021/03/07 09:03:40;;;;;;;2.72;2.00;;;22.80;45.10;;;;;;4949605;28;20078;-46
2021/03/07 09:06:11;;;;;;;2.50;2.05;;;22.80;45.10;;;;;;4973045;28;20047;-44
2021/03/07 09:08:38;;;;;;;2.92;2.17;;;22.80;45.10;;;;;;4972857;28;20495;-43
2021/03/07 09:11:08;;;;;;;2.55;2.05;;;22.80;45.10;;;;;;4972632;28;20055;-43
2021/03/07 09:13:49;;;;;;;2.88;2.03;;;22.80;45.10;;;;;;4973134;28;20051;-44
2021/03/07 09:16:16;;;;;;;3.25;2.20;;;22.80;45.10;;;;;;4972935;28;20154;-43
2021/03/07 09:18:43;;;;;;;2.85;1.90;;;22.80;45.00;;;;;;4972172;28;20085;-43
2021/03/07 09:21:18;;;;;;;3.13;2.03;;;22.80;45.00;;;;;;5073806;28;20114;-43
2021/03/07 09:23:48;;;;;;;2.67;1.80;;;22.80;45.00;;;;;;5073760;28;20071;-44
2021/03/07 09:26:22;;;;;;;2.88;2.13;;;22.80;45.00;;;;;;5072918;28;20045;-44
2021/03/07 09:28:53;;;;;;;3.25;2.25;;;22.80;44.90;;;;;;5073744;28;20416;-47
2021/03/07 09:31:40;;;;;;;3.20;2.13;;;22.80;44.90;;;;;;5073130;28;20094;-46
2021/03/07 09:34:07;;;;;;;2.85;2.25;;;22.80;44.90;;;;;;5071677;28;20106;-48
2021/03/07 09:36:39;;;;;;;2.35;1.98;;;22.80;44.90;;;;;;5074072;28;20499;-51
2021/03/07 09:39:07;;;;;;;2.90;2.00;;;22.80;44.80;;;;;;5072850;28;20057;-51
2021/03/07 09:41:46;;;;;;;2.65;2.13;;;22.80;44.80;;;;;;5072342;28;20110;-47
2021/03/07 09:44:26;;;;;;;2.85;2.17;;;22.80;44.80;;;;;;5073520;28;20068;-48
2021/03/07 09:46:53;;;;;;;2.17;1.83;;;22.80;44.80;;;;;;5071977;28;20090;-45
2021/03/07 09:49:24;;;;;;;2.90;2.22;;;22.80;44.80;;;;;;5072652;28;20109;-47
2021/03/07 09:51:53;;;;;;;2.63;1.98;;;22.80;44.80;;;;;;5073350;28;20450;-45
2021/03/07 09:54:20;;;;;;;3.42;2.08;;;22.80;44.80;;;;;;5073342;28;20048;-48
2021/03/07 09:56:52;;;;;;;2.88;2.08;;;22.80;44.70;;;;;;5072274;28;20071;-49
2021/03/07 09:59:24;;;;;;;2.22;1.88;;;22.90;44.80;;;;;;5072776;28;20423;-42
2021/03/07 10:02:00;;;;;;;2.60;1.90;;;22.80;44.70;;;;;;5073314;28;20098;-45
2021/03/07 10:04:36;;;;;;;2.33;2.03;;;22.90;44.80;;;;;;5072384;28;20127;-49
2021/03/07 10:07:13;;;;;;;2.40;2.00;;;22.90;44.80;;;;;;5072910;28;20048;-44
2021/03/07 10:10:08;;;;;;;2.58;2.17;;;22.90;44.70;;;;;;5073066;28;20454;-44
2021/03/07 10:12:46;;;;;;;2.13;1.80;;;22.90;44.70;;;;;;5072436;28;20126;-46
2021/03/07 10:15:27;;;;;;;2.78;2.17;;;22.90;44.70;;;;;;5073429;28;20048;-45
2021/03/07 10:18:00;;;;;;;3.40;2.22;;;22.90;44.60;;;;;;5073124;28;20102;-44
2021/03/07 10:20:36;;;;;;;2.35;1.98;;;22.90;44.60;;;;;;5072010;28;20048;-44
2021/03/07 10:23:03;;;;;;;2.78;2.05;;;22.90;44.60;;;;;;5073036;28;20044;-43
2021/03/07 10:25:33;;;;;;;3.08;2.13;;;22.90;44.60;;;;;;5071515;28;20056;-45
2021/03/07 10:28:03;;;;;;;3.05;2.00;;;22.90;44.60;;;;;;5072302;28;20412;-43
2021/03/07 10:30:35;;;;;;;3.15;2.03;;;22.90;44.60;;;;;;5073071;28;20048;-44
2021/03/07 10:33:16;;;;;;;3.28;2.00;;;22.90;44.60;;;;;;5072962;28;20502;-42
2021/03/07 10:36:05;;;;;;;2.88;2.10;;;22.90;44.50;;;;;;5073395;28;20052;-44
2021/03/07 10:38:38;;;;;;;2.63;1.90;;;22.90;44.50;;;;;;5076267;28;20062;-45
2021/03/07 10:41:17;;;;;;;2.50;2.00;;;22.90;44.50;;;;;;5076827;28;20048;-44
2021/03/07 10:43:49;;;;;;;2.67;1.90;;;22.90;44.50;;;;;;5076019;28;20044;-43
2021/03/07 10:46:33;;;;;;;2.60;1.90;;;22.90;44.50;;;;;;5076398;28;20044;-46
2021/03/07 10:49:19;;;;;;;2.53;2.03;;;22.90;44.50;;;;;;5075947;28;20048;-43
2021/03/07 10:51:46;;;;;;;2.25;1.65;;;22.90;44.50;;;;;;5076366;28;20049;-44
2021/03/07 10:54:13;;;;;;;4.72;2.00;;;22.90;44.50;;;;;;5075374;28;20059;-45
2021/03/07 10:56:42;;;;;;;2.67;2.13;;;22.90;44.50;;;;;;5075357;28;20053;-43
2021/03/07 10:59:10;;;;;;;2.88;2.30;;;22.90;44.40;;;;;;5075180;28;20499;-46
2021/03/07 11:01:40;;;;;;;2.25;1.77;;;22.90;44.40;;;;;;5076242;28;20044;-43
2021/03/07 11:04:08;;;;;;;2.58;1.95;;;22.90;44.40;;;;;;5075588;28;20052;-44
2021/03/07 11:06:34;;;;;;;2.15;1.85;;;22.90;44.40;;;;;;5075692;28;20554;-48
2021/03/07 11:09:01;;;;;;;1.90;1.70;;;22.90;44.40;;;;;;5075696;28;20084;-44
2021/03/07 11:11:28;;;;;;;3.13;2.10;;;22.90;44.40;;;;;;5075928;28;20052;-43
2021/03/07 11:13:55;;;;;;;2.63;1.95;;;22.90;44.50;;;;;;5075311;28;20102;-46
2021/03/07 11:16:21;;;;;;;2.42;2.05;;;22.90;44.40;;;;;;5076115;28;20102;-46
2021/03/07 11:18:48;;;;;;;2.85;2.10;;;22.90;44.40;;;;;;5076046;28;20048;-43
2021/03/07 11:21:16;;;;;;;2.60;1.80;;;22.90;44.40;;;;;;5075237;28;20040;-47
2021/03/07 11:23:43;;;;;;;2.63;2.00;;;22.90;44.40;;;;;;5074779;28;20049;-43
2021/03/07 11:26:09;;;;;;;2.58;1.80;;;23.00;44.50;;;;;;5074514;28;20098;-43
2021/03/07 11:28:36;;;;;;;1.75;1.58;;;23.00;44.50;;;;;;5075023;28;20048;-44
2021/03/07 11:31:03;;;;;;;3.22;1.92;;;23.00;44.50;;;;;;5074394;28;20091;-45
2021/03/07 11:33:34;;;;;;;2.50;1.73;;;23.00;44.50;;;;;;5075582;28;20054;-43
2021/03/07 11:36:02;;;;;;;2.78;1.90;;;23.00;44.50;;;;;;5074777;28;20128;-43
2021/03/07 11:38:28;;;;;;;2.88;1.70;;;23.00;44.50;;;;;;5075152;28;20106;-48
2021/03/07 11:40:55;;;;;;;2.63;1.85;;;23.00;44.50;;;;;;5075314;28;20553;-43
2021/03/07 11:43:21;;;;;;;1.98;1.48;;;23.00;44.50;;;;;;5074996;28;20045;-45
2021/03/07 11:45:48;;;;;;;2.47;1.80;;;23.00;44.50;;;;;;5075346;28;20094;-43
2021/03/07 11:48:15;;;;;;;2.15;1.85;;;23.00;44.60;;;;;;5074323;28;20455;-44
2021/03/07 11:50:42;;;;;;;2.47;1.83;;;23.00;44.50;;;;;;5074466;28;20053;-43
2021/03/07 11:53:09;;;;;;;2.67;2.10;;;23.00;44.50;;;;;;5075477;28;20123;-43
2021/03/07 11:55:35;;;;;;;2.25;1.75;;;23.00;44.50;;;;;;5075428;28;20405;-44
2021/03/07 11:58:02;;;;;;;2.10;1.88;;;23.00;44.50;;;;;;5073265;28;20044;-43
2021/03/07 12:00:29;;;;;;;1.73;1.45;;;23.00;44.50;;;;;;5074847;28;20040;-44
2021/03/07 12:02:56;;;;;;;3.33;2.10;;;23.00;44.50;;;;;;5075066;28;20075;-43
2021/03/07 12:05:23;;;;;;;2.58;2.00;;;23.00;44.50;;;;;;5074265;28;20044;-42
2021/03/07 12:07:50;;;;;;;2.65;2.00;;;23.00;44.50;;;;;;5074876;28;20049;-43
2021/03/07 12:10:18;;;;;;;2.35;1.67;;;23.00;44.60;;;;;;5074797;28;20049;-44
2021/03/07 12:12:46;;;;;;;3.45;2.42;;;23.00;44.60;;;;;;5074889;28;20068;-44
2021/03/07 12:15:13;;;;;;;1.92;1.63;;;23.00;44.50;;;;;;5074081;28;20048;-43
2021/03/07 12:17:40;;;;;;;2.47;1.85;;;23.00;44.50;;;;;;5075057;28;20059;-43
2021/03/07 12:20:08;;;;;;;1.50;1.40;;;23.00;44.60;;;;;;5074277;28;20467;-43
2021/03/07 12:22:35;;;;;;;2.78;1.90;;;23.00;44.60;;;;;;5075705;28;20045;-43
2021/03/07 12:25:05;;;;;;;2.67;1.92;;;23.00;44.60;;;;;;5074908;28;20147;-43
2021/03/07 12:27:32;;;;;;;2.70;1.80;;;23.00;44.60;;;;;;5073642;28;20048;-43
2021/03/07 12:29:59;;;;;;;2.03;1.80;;;23.00;44.60;;;;;;5072834;28;20594;-48
2021/03/07 12:32:25;;;;;;;1.85;1.67;;;23.00;44.60;;;;;;5074458;28;20051;-43
2021/03/07 12:34:53;;;;;;;2.85;1.77;;;23.00;44.60;;;;;;5074848;28;20082;-43
2021/03/07 12:37:19;;;;;;;2.50;2.08;;;23.00;44.60;;;;;;5073715;28;20447;-45
2021/03/07 12:39:46;;;;;;;2.55;1.83;;;23.00;44.60;;;;;;5074131;28;20048;-43
2021/03/07 12:42:13;;;;;;;3.17;2.00;;;23.00;44.60;;;;;;5074555;28;20466;-44
2021/03/07 12:44:39;;;;;;;1.80;1.58;;;23.00;44.60;;;;;;5073439;28;20045;-43
2021/03/07 12:47:06;;;;;;;2.25;1.65;;;23.00;44.60;;;;;;5074108;28;20086;-43
2021/03/07 12:49:33;;;;;;;2.45;1.60;;;23.00;44.60;;;;;;5074116;28;20444;-44
2021/03/07 12:52:00;;;;;;;2.28;1.40;;;23.00;44.60;;;;;;5073284;28;20060;-49
2021/03/07 12:54:27;;;;;;;1.92;1.60;;;23.00;44.60;;;;;;5072797;28;20063;-45
2021/03/07 12:56:54;;;;;;;2.03;1.70;;;23.00;44.60;;;;;;5073779;28;20048;-43
2021/03/07 12:59:20;;;;;;;2.60;1.60;;;23.00;44.60;;;;;;5072532;28;20504;-46
2021/03/07 13:01:47;;;;;;;1.83;1.70;;;23.00;44.60;;;;;;5073845;28;20412;-46
2021/03/07 13:04:14;;;;;;;2.08;1.67;;;23.00;44.60;;;;;;5073791;28;20094;-44
2021/03/07 13:06:40;;;;;;;2.97;1.92;;;23.00;44.60;;;;;;5073276;28;20060;-49